sensor_id;sensor_type;location;lat;lon;timestamp;temperature;humidity
1277;DHT22;631;51.024;13.826;2023-09-18T00:00:33;18.80;99.90
1277;DHT22;631;51.024;13.826;2023-09-18T00:03:00;18.90;99.90
1277;DHT22;631;51.024;13.826;2023-09-18T00:05:28;18.90;99.90
1277;DHT22;631;51.024;13.826;2023-09-18T00:07:54;18.90;99.90
1277;DHT22;631;51.024;13.826;2023-09-18T00:10:20;19.00;99.90
1277;DHT22;631;51.024;13.826;2023-09-18T00:12:45;19.10;99.90
1277;DHT22;631;51.024;13.826;2023-09-18T00:15:11;19.20;99.90
1277;DHT22;631;51.024;13.826;2023-09-18T00:17:36;19.30;99.90
1277;DHT22;631;51.024;13.826;2023-09-18T00:20:02;19.40;99.90
1277;DHT22;631;51.024;13.826;2023-09-18T00:22:31;19.50;99.90
1277;DHT22;631;51.024;13.826;2023-09-18T00:24:57;19.60;99.90
1277;DHT22;631;51.024;13.826;2023-09-18T00:27:23;19.70;99.90
1277;DHT22;631;51.024;13.826;2023-09-18T00:29:48;19.70;99.90
1277;DHT22;631;51.024;13.826;2023-09-18T00:32:14;19.70;99.90
1277;DHT22;631;51.024;13.826;2023-09-18T00:34:40;19.70;99.90
1277;DHT22;631;51.024;13.826;2023-09-18T00:37:05;19.70;99.90
1277;DHT22;631;51.024;13.826;2023-09-18T00:39:31;19.70;99.90
1277;DHT22;631;51.024;13.826;2023-09-18T00:41:57;19.80;99.90
1277;DHT22;631;51.024;13.826;2023-09-18T00:44:23;19.80;99.90
1277;DHT22;631;51.024;13.826;2023-09-18T00:46:50;19.80;99.90
1277;DHT22;631;51.024;13.826;2023-09-18T00:49:17;19.70;99.90
1277;DHT22;631;51.024;13.826;2023-09-18T00:51:44;19.70;99.90
1277;DHT22;631;51.024;13.826;2023-09-18T00:54:10;19.80;99.90
1277;DHT22;631;51.024;13.826;2023-09-18T00:56:36;19.70;99.90
1277;DHT22;631;51.024;13.826;2023-09-18T00:59:02;19.70;99.90
1277;DHT22;631;51.024;13.826;2023-09-18T01:01:28;19.70;99.90
1277;DHT22;631;51.024;13.826;2023-09-18T01:03:56;19.70;99.90
1277;DHT22;631;51.024;13.826;2023-09-18T01:06:25;19.70;99.90
1277;DHT22;631;51.024;13.826;2023-09-18T01:08:56;19.80;99.90
1277;DHT22;631;51.024;13.826;2023-09-18T01:16:59;19.70;99.90
1277;DHT22;631;51.024;13.826;2023-09-18T01:19:47;19.70;99.90
1277;DHT22;631;51.024;13.826;2023-09-18T01:22:17;19.80;99.90
1277;DHT22;631;51.024;13.826;2023-09-18T01:24:44;19.80;99.90
1277;DHT22;631;51.024;13.826;2023-09-18T01:27:11;19.80;99.90
1277;DHT22;631;51.024;13.826;2023-09-18T01:29:42;19.80;99.90
1277;DHT22;631;51.024;13.826;2023-09-18T01:32:08;19.90;99.90
1277;DHT22;631;51.024;13.826;2023-09-18T01:34:37;19.90;99.90
1277;DHT22;631;51.024;13.826;2023-09-18T01:37:07;19.80;99.90
1277;DHT22;631;51.024;13.826;2023-09-18T01:39:35;19.90;99.90
1277;DHT22;631;51.024;13.826;2023-09-18T01:42:04;19.80;99.90
1277;DHT22;631;51.024;13.826;2023-09-18T01:44:34;19.80;99.90
1277;DHT22;631;51.024;13.826;2023-09-18T01:47:03;19.80;99.90
1277;DHT22;631;51.024;13.826;2023-09-18T01:49:33;19.80;99.90
1277;DHT22;631;51.024;13.826;2023-09-18T01:52:00;19.80;99.90
1277;DHT22;631;51.024;13.826;2023-09-18T01:54:25;19.80;99.90
1277;DHT22;631;51.024;13.826;2023-09-18T01:56:52;19.80;99.90
1277;DHT22;631;51.024;13.826;2023-09-18T01:59:19;19.80;99.90
1277;DHT22;631;51.024;13.826;2023-09-18T02:01:44;19.80;99.90
1277;DHT22;631;51.024;13.826;2023-09-18T02:04:10;19.80;99.90
1277;DHT22;631;51.024;13.826;2023-09-18T02:06:36;19.80;99.90
1277;DHT22;631;51.024;13.826;2023-09-18T02:09:02;19.80;99.90
1277;DHT22;631;51.024;13.826;2023-09-18T02:11:29;19.70;99.90
1277;DHT22;631;51.024;13.826;2023-09-18T02:13:54;19.70;99.90
1277;DHT22;631;51.024;13.826;2023-09-18T02:16:21;19.70;99.90
1277;DHT22;631;51.024;13.826;2023-09-18T02:18:49;19.70;99.90
1277;DHT22;631;51.024;13.826;2023-09-18T02:21:22;19.60;99.90
1277;DHT22;631;51.024;13.826;2023-09-18T02:23:51;19.60;99.90
1277;DHT22;631;51.024;13.826;2023-09-18T02:26:18;19.50;99.90
1277;DHT22;631;51.024;13.826;2023-09-18T02:28:44;19.50;99.90
1277;DHT22;631;51.024;13.826;2023-09-18T02:31:09;19.50;99.90
1277;DHT22;631;51.024;13.826;2023-09-18T02:33:36;19.60;99.90
1277;DHT22;631;51.024;13.826;2023-09-18T02:36:02;19.50;99.90
1277;DHT22;631;51.024;13.826;2023-09-18T02:38:28;19.60;99.90
1277;DHT22;631;51.024;13.826;2023-09-18T02:40:54;19.60;99.90
1277;DHT22;631;51.024;13.826;2023-09-18T02:43:20;19.60;99.90
1277;DHT22;631;51.024;13.826;2023-09-18T02:45:46;19.60;99.90
1277;DHT22;631;51.024;13.826;2023-09-18T02:48:12;19.60;99.90
1277;DHT22;631;51.024;13.826;2023-09-18T02:50:37;19.60;99.90
1277;DHT22;631;51.024;13.826;2023-09-18T02:53:06;19.60;99.90
1277;DHT22;631;51.024;13.826;2023-09-18T02:55:32;19.60;99.90
1277;DHT22;631;51.024;13.826;2023-09-18T02:57:57;19.60;99.90
1277;DHT22;631;51.024;13.826;2023-09-18T03:00:24;19.60;99.90
1277;DHT22;631;51.024;13.826;2023-09-18T03:02:50;19.60;99.90
1277;DHT22;631;51.024;13.826;2023-09-18T03:05:15;19.70;99.90
1277;DHT22;631;51.024;13.826;2023-09-18T03:07:41;19.60;99.90
1277;DHT22;631;51.024;13.826;2023-09-18T03:10:07;19.60;99.90
1277;DHT22;631;51.024;13.826;2023-09-18T03:12:33;19.70;99.90
1277;DHT22;631;51.024;13.826;2023-09-18T03:14:59;19.70;99.90
1277;DHT22;631;51.024;13.826;2023-09-18T03:17:24;19.60;99.90
1277;DHT22;631;51.024;13.826;2023-09-18T03:19:50;19.60;99.90
1277;DHT22;631;51.024;13.826;2023-09-18T03:22:16;19.70;99.90
1277;DHT22;631;51.024;13.826;2023-09-18T03:24:41;19.60;99.90
1277;DHT22;631;51.024;13.826;2023-09-18T03:27:07;19.60;99.90
1277;DHT22;631;51.024;13.826;2023-09-18T03:29:33;19.60;99.90
1277;DHT22;631;51.024;13.826;2023-09-18T03:31:58;19.60;99.90
1277;DHT22;631;51.024;13.826;2023-09-18T03:34:25;19.60;99.90
1277;DHT22;631;51.024;13.826;2023-09-18T03:36:52;19.60;99.90
1277;DHT22;631;51.024;13.826;2023-09-18T03:39:18;19.50;99.90
1277;DHT22;631;51.024;13.826;2023-09-18T03:41:44;19.50;99.90
1277;DHT22;631;51.024;13.826;2023-09-18T03:44:10;19.60;99.90
1277;DHT22;631;51.024;13.826;2023-09-18T03:46:36;19.60;99.90
1277;DHT22;631;51.024;13.826;2023-09-18T03:49:02;19.60;99.90
1277;DHT22;631;51.024;13.826;2023-09-18T03:51:29;19.60;99.90
1277;DHT22;631;51.024;13.826;2023-09-18T03:53:55;19.60;99.90
1277;DHT22;631;51.024;13.826;2023-09-18T03:56:21;19.60;99.90
1277;DHT22;631;51.024;13.826;2023-09-18T03:58:47;19.50;99.90
1277;DHT22;631;51.024;13.826;2023-09-18T04:01:15;19.50;99.90
1277;DHT22;631;51.024;13.826;2023-09-18T04:03:41;19.40;99.90
1277;DHT22;631;51.024;13.826;2023-09-18T04:06:07;19.40;99.90
1277;DHT22;631;51.024;13.826;2023-09-18T04:08:32;19.40;99.90
1277;DHT22;631;51.024;13.826;2023-09-18T04:10:58;19.40;99.90
1277;DHT22;631;51.024;13.826;2023-09-18T04:13:24;19.40;99.90
1277;DHT22;631;51.024;13.826;2023-09-18T04:15:50;19.30;99.90
1277;DHT22;631;51.024;13.826;2023-09-18T04:18:17;19.30;99.90
1277;DHT22;631;51.024;13.826;2023-09-18T04:20:42;19.20;99.90
1277;DHT22;631;51.024;13.826;2023-09-18T04:23:25;19.20;99.90
1277;DHT22;631;51.024;13.826;2023-09-18T04:25:53;19.20;99.90
1277;DHT22;631;51.024;13.826;2023-09-18T04:28:20;19.20;99.90
1277;DHT22;631;51.024;13.826;2023-09-18T04:30:46;19.10;99.90
1277;DHT22;631;51.024;13.826;2023-09-18T04:33:15;19.00;99.90
1277;DHT22;631;51.024;13.826;2023-09-18T04:35:42;19.00;99.90
1277;DHT22;631;51.024;13.826;2023-09-18T04:38:08;19.00;99.90
1277;DHT22;631;51.024;13.826;2023-09-18T04:40:36;18.90;99.90
1277;DHT22;631;51.024;13.826;2023-09-18T04:43:02;18.90;99.90
1277;DHT22;631;51.024;13.826;2023-09-18T04:45:31;18.90;99.90
1277;DHT22;631;51.024;13.826;2023-09-18T04:47:57;18.90;99.90
1277;DHT22;631;51.024;13.826;2023-09-18T04:50:23;18.90;99.90
1277;DHT22;631;51.024;13.826;2023-09-18T04:52:48;18.90;99.90
1277;DHT22;631;51.024;13.826;2023-09-18T04:55:16;18.90;99.90
1277;DHT22;631;51.024;13.826;2023-09-18T04:57:41;19.00;99.90
1277;DHT22;631;51.024;13.826;2023-09-18T05:00:07;18.90;99.90
1277;DHT22;631;51.024;13.826;2023-09-18T05:02:34;18.90;99.90
1277;DHT22;631;51.024;13.826;2023-09-18T05:05:00;18.90;99.90
1277;DHT22;631;51.024;13.826;2023-09-18T05:07:27;18.90;99.90
1277;DHT22;631;51.024;13.826;2023-09-18T05:09:53;18.90;99.90
1277;DHT22;631;51.024;13.826;2023-09-18T05:12:18;18.90;99.90
1277;DHT22;631;51.024;13.826;2023-09-18T05:14:44;18.90;99.90
1277;DHT22;631;51.024;13.826;2023-09-18T05:17:16;18.90;99.90
1277;DHT22;631;51.024;13.826;2023-09-18T05:19:45;18.90;99.90
1277;DHT22;631;51.024;13.826;2023-09-18T05:22:11;18.80;99.90
1277;DHT22;631;51.024;13.826;2023-09-18T05:24:38;18.90;99.90
1277;DHT22;631;51.024;13.826;2023-09-18T05:27:04;18.90;99.90
1277;DHT22;631;51.024;13.826;2023-09-18T05:29:31;19.00;99.90
1277;DHT22;631;51.024;13.826;2023-09-18T05:31:57;19.00;99.90
1277;DHT22;631;51.024;13.826;2023-09-18T05:34:23;19.10;99.90
1277;DHT22;631;51.024;13.826;2023-09-18T05:36:49;19.10;99.90
1277;DHT22;631;51.024;13.826;2023-09-18T05:39:15;19.10;99.90
1277;DHT22;631;51.024;13.826;2023-09-18T05:41:42;19.20;99.90
1277;DHT22;631;51.024;13.826;2023-09-18T05:44:07;19.20;99.90
1277;DHT22;631;51.024;13.826;2023-09-18T05:46:36;19.20;99.90
1277;DHT22;631;51.024;13.826;2023-09-18T05:49:03;19.20;99.90
1277;DHT22;631;51.024;13.826;2023-09-18T05:51:30;19.30;99.90
1277;DHT22;631;51.024;13.826;2023-09-18T05:53:55;19.30;99.90
1277;DHT22;631;51.024;13.826;2023-09-18T05:56:21;19.40;99.90
1277;DHT22;631;51.024;13.826;2023-09-18T05:58:46;19.40;99.90
1277;DHT22;631;51.024;13.826;2023-09-18T06:01:12;19.40;99.90
1277;DHT22;631;51.024;13.826;2023-09-18T06:03:38;19.50;99.90
1277;DHT22;631;51.024;13.826;2023-09-18T06:06:04;19.50;99.90
1277;DHT22;631;51.024;13.826;2023-09-18T06:08:30;19.50;99.90
1277;DHT22;631;51.024;13.826;2023-09-18T06:10:57;19.50;99.90
1277;DHT22;631;51.024;13.826;2023-09-18T06:13:27;19.50;99.90
1277;DHT22;631;51.024;13.826;2023-09-18T06:15:54;19.50;99.90
1277;DHT22;631;51.024;13.826;2023-09-18T06:18:21;19.60;99.90
1277;DHT22;631;51.024;13.826;2023-09-18T06:20:47;19.60;99.90
1277;DHT22;631;51.024;13.826;2023-09-18T06:23:13;19.60;99.90
1277;DHT22;631;51.024;13.826;2023-09-18T06:25:41;19.70;99.90
1277;DHT22;631;51.024;13.826;2023-09-18T06:28:07;19.70;99.90
1277;DHT22;631;51.024;13.826;2023-09-18T06:30:33;19.80;99.90
1277;DHT22;631;51.024;13.826;2023-09-18T06:33:00;19.80;99.90
1277;DHT22;631;51.024;13.826;2023-09-18T06:35:26;19.90;99.90
1277;DHT22;631;51.024;13.826;2023-09-18T06:37:52;19.90;99.90
1277;DHT22;631;51.024;13.826;2023-09-18T06:40:20;20.00;99.90
1277;DHT22;631;51.024;13.826;2023-09-18T06:42:46;20.00;99.90
1277;DHT22;631;51.024;13.826;2023-09-18T06:45:11;20.10;99.90
1277;DHT22;631;51.024;13.826;2023-09-18T06:47:38;20.10;99.90
1277;DHT22;631;51.024;13.826;2023-09-18T06:50:05;20.20;99.90
1277;DHT22;631;51.024;13.826;2023-09-18T06:52:31;20.20;99.90
1277;DHT22;631;51.024;13.826;2023-09-18T06:54:57;20.20;99.90
1277;DHT22;631;51.024;13.826;2023-09-18T06:57:23;20.20;99.90
1277;DHT22;631;51.024;13.826;2023-09-18T06:59:49;20.20;99.90
1277;DHT22;631;51.024;13.826;2023-09-18T07:02:15;20.20;99.90
1277;DHT22;631;51.024;13.826;2023-09-18T07:04:41;20.30;99.90
1277;DHT22;631;51.024;13.826;2023-09-18T07:07:12;20.30;99.90
1277;DHT22;631;51.024;13.826;2023-09-18T07:09:38;20.40;99.90
1277;DHT22;631;51.024;13.826;2023-09-18T07:12:04;20.50;99.90
1277;DHT22;631;51.024;13.826;2023-09-18T07:14:30;20.60;99.90
1277;DHT22;631;51.024;13.826;2023-09-18T07:16:56;20.70;99.90
1277;DHT22;631;51.024;13.826;2023-09-18T07:19:22;20.80;99.90
1277;DHT22;631;51.024;13.826;2023-09-18T07:21:47;20.90;99.90
1277;DHT22;631;51.024;13.826;2023-09-18T07:24:13;21.00;99.90
1277;DHT22;631;51.024;13.826;2023-09-18T07:26:44;21.10;99.90
1277;DHT22;631;51.024;13.826;2023-09-18T07:29:09;21.20;99.90
1277;DHT22;631;51.024;13.826;2023-09-18T07:31:35;21.30;99.90
1277;DHT22;631;51.024;13.826;2023-09-18T07:34:01;21.40;99.90
1277;DHT22;631;51.024;13.826;2023-09-18T07:36:26;21.50;99.90
1277;DHT22;631;51.024;13.826;2023-09-18T07:38:52;21.60;99.90
1277;DHT22;631;51.024;13.826;2023-09-18T07:41:18;21.80;99.90
1277;DHT22;631;51.024;13.826;2023-09-18T07:43:45;21.90;99.90
1277;DHT22;631;51.024;13.826;2023-09-18T07:46:10;22.00;99.90
1277;DHT22;631;51.024;13.826;2023-09-18T07:48:36;22.20;99.90
1277;DHT22;631;51.024;13.826;2023-09-18T07:51:03;22.40;99.90
1277;DHT22;631;51.024;13.826;2023-09-18T07:53:28;22.50;99.90
1277;DHT22;631;51.024;13.826;2023-09-18T07:55:57;22.70;99.90
1277;DHT22;631;51.024;13.826;2023-09-18T07:58:24;22.80;99.90
1277;DHT22;631;51.024;13.826;2023-09-18T08:00:56;23.00;99.90
1277;DHT22;631;51.024;13.826;2023-09-18T08:03:23;23.20;99.90
1277;DHT22;631;51.024;13.826;2023-09-18T08:05:51;23.30;99.90
1277;DHT22;631;51.024;13.826;2023-09-18T08:08:18;23.40;99.90
1277;DHT22;631;51.024;13.826;2023-09-18T08:10:46;23.50;99.90
1277;DHT22;631;51.024;13.826;2023-09-18T08:13:12;23.80;99.90
1277;DHT22;631;51.024;13.826;2023-09-18T08:15:38;24.00;99.00
1277;DHT22;631;51.024;13.826;2023-09-18T08:18:04;24.30;98.30
1277;DHT22;631;51.024;13.826;2023-09-18T08:20:29;24.50;97.40
1277;DHT22;631;51.024;13.826;2023-09-18T08:22:55;24.70;96.60
1277;DHT22;631;51.024;13.826;2023-09-18T08:25:21;24.90;95.60
1277;DHT22;631;51.024;13.826;2023-09-18T08:27:47;25.20;95.00
1277;DHT22;631;51.024;13.826;2023-09-18T08:30:14;25.50;93.20
1277;DHT22;631;51.024;13.826;2023-09-18T08:32:41;25.80;92.70
1277;DHT22;631;51.024;13.826;2023-09-18T08:35:08;26.20;92.40
1277;DHT22;631;51.024;13.826;2023-09-18T08:37:34;26.50;90.50
1277;DHT22;631;51.024;13.826;2023-09-18T08:40:00;26.80;88.40
1277;DHT22;631;51.024;13.826;2023-09-18T08:42:28;27.20;85.30
1277;DHT22;631;51.024;13.826;2023-09-18T08:44:58;27.40;82.00
1277;DHT22;631;51.024;13.826;2023-09-18T08:47:25;27.90;81.10
1277;DHT22;631;51.024;13.826;2023-09-18T08:49:53;28.20;77.50
1277;DHT22;631;51.024;13.826;2023-09-18T08:52:20;28.20;73.70
1277;DHT22;631;51.024;13.826;2023-09-18T08:54:46;28.20;73.00
1277;DHT22;631;51.024;13.826;2023-09-18T08:57:12;28.20;72.40
1277;DHT22;631;51.024;13.826;2023-09-18T08:59:39;28.30;70.50
1277;DHT22;631;51.024;13.826;2023-09-18T09:02:06;28.60;69.60
1277;DHT22;631;51.024;13.826;2023-09-18T09:04:32;28.80;69.00
1277;DHT22;631;51.024;13.826;2023-09-18T09:06:58;28.80;66.80
1277;DHT22;631;51.024;13.826;2023-09-18T09:09:25;29.00;65.90
1277;DHT22;631;51.024;13.826;2023-09-18T09:11:55;29.30;64.00
1277;DHT22;631;51.024;13.826;2023-09-18T09:14:20;29.80;62.80
1277;DHT22;631;51.024;13.826;2023-09-18T09:16:56;30.30;59.30
1277;DHT22;631;51.024;13.826;2023-09-18T09:19:33;30.80;57.20
1277;DHT22;631;51.024;13.826;2023-09-18T09:22:01;31.10;54.40
1277;DHT22;631;51.024;13.826;2023-09-18T09:24:43;31.40;54.10
1277;DHT22;631;51.024;13.826;2023-09-18T09:27:10;31.20;51.40
1277;DHT22;631;51.024;13.826;2023-09-18T09:29:36;31.00;51.30
1277;DHT22;631;51.024;13.826;2023-09-18T09:32:16;30.70;50.70
1277;DHT22;631;51.024;13.826;2023-09-18T09:34:42;30.50;49.50
1277;DHT22;631;51.024;13.826;2023-09-18T09:37:09;30.70;49.30
1277;DHT22;631;51.024;13.826;2023-09-18T09:39:46;30.30;50.00
1277;DHT22;631;51.024;13.826;2023-09-18T09:42:16;30.50;49.00
1277;DHT22;631;51.024;13.826;2023-09-18T09:44:44;30.40;48.70
1277;DHT22;631;51.024;13.826;2023-09-18T09:47:10;30.70;48.80
1277;DHT22;631;51.024;13.826;2023-09-18T09:49:47;30.70;48.60
1277;DHT22;631;51.024;13.826;2023-09-18T09:52:18;31.30;47.80
1277;DHT22;631;51.024;13.826;2023-09-18T09:54:47;31.60;46.20
1277;DHT22;631;51.024;13.826;2023-09-18T09:57:13;31.20;45.20
1277;DHT22;631;51.024;13.826;2023-09-18T09:59:39;31.00;45.40
1277;DHT22;631;51.024;13.826;2023-09-18T10:02:10;30.00;46.90
1277;DHT22;631;51.024;13.826;2023-09-18T10:04:38;29.90;47.80
1277;DHT22;631;51.024;13.826;2023-09-18T10:07:08;29.80;48.50
1277;DHT22;631;51.024;13.826;2023-09-18T10:09:41;30.10;48.40
1277;DHT22;631;51.024;13.826;2023-09-18T10:12:11;30.20;47.40
1277;DHT22;631;51.024;13.826;2023-09-18T10:14:37;30.20;47.70
1277;DHT22;631;51.024;13.826;2023-09-18T10:17:16;29.70;48.50
1277;DHT22;631;51.024;13.826;2023-09-18T10:20:08;29.60;48.00
1277;DHT22;631;51.024;13.826;2023-09-18T10:22:38;29.80;48.50
1277;DHT22;631;51.024;13.826;2023-09-18T10:25:15;30.50;48.70
1277;DHT22;631;51.024;13.826;2023-09-18T10:27:47;31.20;47.30
1277;DHT22;631;51.024;13.826;2023-09-18T10:30:19;31.90;45.10
1277;DHT22;631;51.024;13.826;2023-09-18T10:32:45;32.60;43.90
1277;DHT22;631;51.024;13.826;2023-09-18T10:35:11;33.20;42.50
1277;DHT22;631;51.024;13.826;2023-09-18T10:37:38;33.30;39.40
1277;DHT22;631;51.024;13.826;2023-09-18T10:40:05;33.50;39.80
1277;DHT22;631;51.024;13.826;2023-09-18T10:42:35;34.10;38.50
1277;DHT22;631;51.024;13.826;2023-09-18T10:45:03;34.00;37.50
1277;DHT22;631;51.024;13.826;2023-09-18T10:47:32;34.00;37.70
1277;DHT22;631;51.024;13.826;2023-09-18T10:50:00;34.50;38.40
1277;DHT22;631;51.024;13.826;2023-09-18T10:52:26;34.90;37.50
1277;DHT22;631;51.024;13.826;2023-09-18T10:54:52;34.80;36.60
1277;DHT22;631;51.024;13.826;2023-09-18T10:57:18;34.90;35.20
1277;DHT22;631;51.024;13.826;2023-09-18T10:59:47;34.60;35.40
1277;DHT22;631;51.024;13.826;2023-09-18T11:02:16;34.50;35.10
1277;DHT22;631;51.024;13.826;2023-09-18T11:04:44;33.80;35.90
1277;DHT22;631;51.024;13.826;2023-09-18T11:07:23;32.20;38.40
1277;DHT22;631;51.024;13.826;2023-09-18T11:09:50;31.70;40.50
1277;DHT22;631;51.024;13.826;2023-09-18T11:12:17;31.30;41.40
1277;DHT22;631;51.024;13.826;2023-09-18T11:14:55;30.70;42.80
1277;DHT22;631;51.024;13.826;2023-09-18T11:17:39;30.40;44.00
1277;DHT22;631;51.024;13.826;2023-09-18T11:20:16;30.00;45.30
1277;DHT22;631;51.024;13.826;2023-09-18T11:25:35;28.80;46.60
1277;DHT22;631;51.024;13.826;2023-09-18T11:28:03;28.50;48.10
1277;DHT22;631;51.024;13.826;2023-09-18T11:30:29;28.40;48.90
1277;DHT22;631;51.024;13.826;2023-09-18T11:32:55;28.50;49.70
1277;DHT22;631;51.024;13.826;2023-09-18T11:35:22;28.50;50.00
1277;DHT22;631;51.024;13.826;2023-09-18T11:38:06;28.60;50.40
1277;DHT22;631;51.024;13.826;2023-09-18T11:40:34;28.60;50.40
1277;DHT22;631;51.024;13.826;2023-09-18T11:43:23;28.70;50.70
1277;DHT22;631;51.024;13.826;2023-09-18T11:45:51;28.60;50.90
1277;DHT22;631;51.024;13.826;2023-09-18T11:48:18;28.50;51.10
1277;DHT22;631;51.024;13.826;2023-09-18T11:50:44;28.60;51.30
1277;DHT22;631;51.024;13.826;2023-09-18T11:53:11;28.90;51.10
1277;DHT22;631;51.024;13.826;2023-09-18T11:55:39;29.10;50.00
1277;DHT22;631;51.024;13.826;2023-09-18T11:58:05;29.40;49.10
1277;DHT22;631;51.024;13.826;2023-09-18T12:00:32;30.20;47.80
1277;DHT22;631;51.024;13.826;2023-09-18T12:02:57;31.20;47.00
1277;DHT22;631;51.024;13.826;2023-09-18T12:05:26;32.50;44.50
1277;DHT22;631;51.024;13.826;2023-09-18T12:07:52;33.20;40.10
1277;DHT22;631;51.024;13.826;2023-09-18T12:10:20;33.60;39.50
1277;DHT22;631;51.024;13.826;2023-09-18T12:12:48;34.70;39.60
1277;DHT22;631;51.024;13.826;2023-09-18T12:15:17;35.40;36.90
1277;DHT22;631;51.024;13.826;2023-09-18T12:17:45;36.30;35.40
1277;DHT22;631;51.024;13.826;2023-09-18T12:20:18;36.80;33.50
1277;DHT22;631;51.024;13.826;2023-09-18T12:22:50;36.70;31.80
1277;DHT22;631;51.024;13.826;2023-09-18T12:25:16;36.60;32.20
1277;DHT22;631;51.024;13.826;2023-09-18T12:27:44;36.90;32.20
1277;DHT22;631;51.024;13.826;2023-09-18T12:30:11;37.20;31.00
1277;DHT22;631;51.024;13.826;2023-09-18T12:32:39;37.40;30.30
1277;DHT22;631;51.024;13.826;2023-09-18T12:35:07;37.40;30.40
1277;DHT22;631;51.024;13.826;2023-09-18T12:37:45;36.90;30.70
1277;DHT22;631;51.024;13.826;2023-09-18T12:40:25;35.80;31.50
1277;DHT22;631;51.024;13.826;2023-09-18T12:42:54;35.10;33.00
1277;DHT22;631;51.024;13.826;2023-09-18T12:45:22;34.30;34.40
1277;DHT22;631;51.024;13.826;2023-09-18T12:47:48;33.70;35.50
1277;DHT22;631;51.024;13.826;2023-09-18T12:50:14;33.80;37.20
1277;DHT22;631;51.024;13.826;2023-09-18T12:52:42;33.70;37.20
1277;DHT22;631;51.024;13.826;2023-09-18T12:55:24;33.70;36.80
1277;DHT22;631;51.024;13.826;2023-09-18T12:57:52;33.80;37.30
1277;DHT22;631;51.024;13.826;2023-09-18T13:00:23;33.80;37.20
1277;DHT22;631;51.024;13.826;2023-09-18T13:02:52;33.70;37.20
1277;DHT22;631;51.024;13.826;2023-09-18T13:05:21;33.20;36.60
1277;DHT22;631;51.024;13.826;2023-09-18T13:07:51;33.30;37.60
1277;DHT22;631;51.024;13.826;2023-09-18T13:10:17;33.20;38.40
1277;DHT22;631;51.024;13.826;2023-09-18T13:12:47;33.20;38.20
1277;DHT22;631;51.024;13.826;2023-09-18T13:15:14;33.40;38.40
1277;DHT22;631;51.024;13.826;2023-09-18T13:17:49;33.50;38.50
1277;DHT22;631;51.024;13.826;2023-09-18T13:20:28;33.60;38.50
1277;DHT22;631;51.024;13.826;2023-09-18T13:22:58;33.90;38.50
1277;DHT22;631;51.024;13.826;2023-09-18T13:25:29;34.40;38.20
1277;DHT22;631;51.024;13.826;2023-09-18T13:27:55;35.00;37.00
1277;DHT22;631;51.024;13.826;2023-09-18T13:30:21;35.80;35.20
1277;DHT22;631;51.024;13.826;2023-09-18T13:32:48;36.20;34.00
1277;DHT22;631;51.024;13.826;2023-09-18T13:35:17;36.50;32.70
1277;DHT22;631;51.024;13.826;2023-09-18T13:37:44;36.20;32.00
1277;DHT22;631;51.024;13.826;2023-09-18T13:40:11;35.50;32.20
1277;DHT22;631;51.024;13.826;2023-09-18T13:42:37;34.90;33.50
1277;DHT22;631;51.024;13.826;2023-09-18T13:45:04;34.10;34.90
1277;DHT22;631;51.024;13.826;2023-09-18T13:47:32;33.80;36.00
1277;DHT22;631;51.024;13.826;2023-09-18T13:49:59;32.70;37.20
1277;DHT22;631;51.024;13.826;2023-09-18T13:52:35;31.90;39.00
1277;DHT22;631;51.024;13.826;2023-09-18T13:55:03;31.50;40.80
1277;DHT22;631;51.024;13.826;2023-09-18T13:57:34;31.40;41.70
1277;DHT22;631;51.024;13.826;2023-09-18T14:00:01;31.10;41.90
1277;DHT22;631;51.024;13.826;2023-09-18T14:02:30;31.10;42.40
1277;DHT22;631;51.024;13.826;2023-09-18T14:04:56;30.60;43.00
1277;DHT22;631;51.024;13.826;2023-09-18T14:07:22;30.20;43.50
1277;DHT22;631;51.024;13.826;2023-09-18T14:09:47;30.00;43.80
1277;DHT22;631;51.024;13.826;2023-09-18T14:12:13;29.90;44.80
1277;DHT22;631;51.024;13.826;2023-09-18T14:14:43;29.70;45.20
1277;DHT22;631;51.024;13.826;2023-09-18T14:17:10;29.60;46.10
1277;DHT22;631;51.024;13.826;2023-09-18T14:19:36;29.60;46.70
1277;DHT22;631;51.024;13.826;2023-09-18T14:22:08;29.70;46.60
1277;DHT22;631;51.024;13.826;2023-09-18T14:24:34;29.90;46.00
1277;DHT22;631;51.024;13.826;2023-09-18T14:27:01;30.10;45.60
1277;DHT22;631;51.024;13.826;2023-09-18T14:29:26;30.10;45.80
1277;DHT22;631;51.024;13.826;2023-09-18T14:31:53;30.10;46.40
1277;DHT22;631;51.024;13.826;2023-09-18T14:34:19;30.00;46.20
1277;DHT22;631;51.024;13.826;2023-09-18T14:36:44;30.10;46.60
1277;DHT22;631;51.024;13.826;2023-09-18T14:39:10;30.00;46.60
1277;DHT22;631;51.024;13.826;2023-09-18T14:41:36;29.90;46.70
1277;DHT22;631;51.024;13.826;2023-09-18T14:44:03;29.70;45.70
1277;DHT22;631;51.024;13.826;2023-09-18T14:46:30;29.70;47.20
1277;DHT22;631;51.024;13.826;2023-09-18T14:48:59;29.60;46.00
1277;DHT22;631;51.024;13.826;2023-09-18T14:51:25;29.50;47.80
1277;DHT22;631;51.024;13.826;2023-09-18T14:53:51;29.50;47.90
1277;DHT22;631;51.024;13.826;2023-09-18T14:56:16;29.50;49.20
1277;DHT22;631;51.024;13.826;2023-09-18T14:58:42;29.60;47.10
1277;DHT22;631;51.024;13.826;2023-09-18T15:01:09;29.80;45.80
1277;DHT22;631;51.024;13.826;2023-09-18T15:03:35;30.00;45.20
1277;DHT22;631;51.024;13.826;2023-09-18T15:06:01;29.90;44.20
1277;DHT22;631;51.024;13.826;2023-09-18T15:08:27;29.90;43.20
1277;DHT22;631;51.024;13.826;2023-09-18T15:10:53;29.90;43.50
1277;DHT22;631;51.024;13.826;2023-09-18T15:13:18;29.80;43.60
1277;DHT22;631;51.024;13.826;2023-09-18T15:15:44;29.70;44.40
1277;DHT22;631;51.024;13.826;2023-09-18T15:18:11;29.50;44.50
1277;DHT22;631;51.024;13.826;2023-09-18T15:20:37;29.30;45.40
1277;DHT22;631;51.024;13.826;2023-09-18T15:23:05;29.20;45.50
1277;DHT22;631;51.024;13.826;2023-09-18T15:25:32;28.90;46.50
1277;DHT22;631;51.024;13.826;2023-09-18T15:28:01;28.80;46.90
1277;DHT22;631;51.024;13.826;2023-09-18T15:30:26;28.60;46.50
1277;DHT22;631;51.024;13.826;2023-09-18T15:32:53;28.40;45.70
1277;DHT22;631;51.024;13.826;2023-09-18T15:35:20;28.10;46.40
1277;DHT22;631;51.024;13.826;2023-09-18T15:37:45;27.80;46.70
1277;DHT22;631;51.024;13.826;2023-09-18T15:40:11;27.60;46.30
1277;DHT22;631;51.024;13.826;2023-09-18T15:42:39;27.40;46.30
1277;DHT22;631;51.024;13.826;2023-09-18T15:45:09;27.30;46.50
1277;DHT22;631;51.024;13.826;2023-09-18T15:47:40;27.20;46.50
1277;DHT22;631;51.024;13.826;2023-09-18T15:50:10;27.00;46.40
1277;DHT22;631;51.024;13.826;2023-09-18T15:52:36;26.80;46.70
1277;DHT22;631;51.024;13.826;2023-09-18T15:55:03;26.70;46.60
1277;DHT22;631;51.024;13.826;2023-09-18T15:57:31;26.60;46.80
1277;DHT22;631;51.024;13.826;2023-09-18T15:59:57;26.60;46.40
1277;DHT22;631;51.024;13.826;2023-09-18T16:02:26;26.30;46.60
1277;DHT22;631;51.024;13.826;2023-09-18T16:04:52;26.20;46.70
1277;DHT22;631;51.024;13.826;2023-09-18T16:07:21;26.10;47.30
1277;DHT22;631;51.024;13.826;2023-09-18T16:09:46;26.20;47.80
1277;DHT22;631;51.024;13.826;2023-09-18T16:12:12;26.10;48.00